sensor_id;sensor_type;location;lat;lon;timestamp;P1;durP1;ratioP1;P2;durP2;ratioP2
19280;SDS011;9774;52.034;5.342;2023-06-26T00:02:02;5.57;;;5.03;;
19280;SDS011;9774;52.034;5.342;2023-06-26T00:04:30;5.32;;;4.82;;
19280;SDS011;9774;52.034;5.342;2023-06-26T00:06:57;5.72;;;5.18;;
19280;SDS011;9774;52.034;5.342;2023-06-26T00:09:24;7.55;;;5.30;;
19280;SDS011;9774;52.034;5.342;2023-06-26T00:11:53;4.80;;;4.35;;
19280;SDS011;9774;52.034;5.342;2023-06-26T00:14:20;5.25;;;4.72;;
19280;SDS011;9774;52.034;5.342;2023-06-26T00:16:47;5.93;;;5.13;;
19280;SDS011;9774;52.034;5.342;2023-06-26T00:19:15;5.63;;;4.80;;
19280;SDS011;9774;52.034;5.342;2023-06-26T00:21:43;6.80;;;4.93;;
19280;SDS011;9774;52.034;5.342;2023-06-26T00:24:11;5.75;;;5.25;;
19280;SDS011;9774;52.034;5.342;2023-06-26T00:26:39;5.30;;;4.80;;
19280;SDS011;9774;52.034;5.342;2023-06-26T00:29:07;6.38;;;5.03;;
19280;SDS011;9774;52.034;5.342;2023-06-26T00:31:35;5.60;;;4.97;;
19280;SDS011;9774;52.034;5.342;2023-06-26T00:34:03;5.45;;;4.78;;
19280;SDS011;9774;52.034;5.342;2023-06-26T00:36:30;5.30;;;4.80;;
19280;SDS011;9774;52.034;5.342;2023-06-26T00:38:58;5.60;;;4.78;;
19280;SDS011;9774;52.034;5.342;2023-06-26T00:41:25;6.45;;;5.47;;
19280;SDS011;9774;52.034;5.342;2023-06-26T00:43:52;8.63;;;5.38;;
19280;SDS011;9774;52.034;5.342;2023-06-26T00:46:21;6.10;;;5.05;;
19280;SDS011;9774;52.034;5.342;2023-06-26T00:48:49;5.80;;;5.22;;
19280;SDS011;9774;52.034;5.342;2023-06-26T00:51:17;5.97;;;5.38;;
19280;SDS011;9774;52.034;5.342;2023-06-26T00:53:45;5.72;;;5.13;;
19280;SDS011;9774;52.034;5.342;2023-06-26T00:56:13;5.32;;;4.82;;
19280;SDS011;9774;52.034;5.342;2023-06-26T00:58:41;6.50;;;5.55;;
19280;SDS011;9774;52.034;5.342;2023-06-26T01:01:08;8.20;;;5.03;;
19280;SDS011;9774;52.034;5.342;2023-06-26T01:03:42;5.53;;;5.03;;
19280;SDS011;9774;52.034;5.342;2023-06-26T01:06:11;5.78;;;5.00;;
19280;SDS011;9774;52.034;5.342;2023-06-26T01:08:41;5.63;;;5.00;;
19280;SDS011;9774;52.034;5.342;2023-06-26T01:11:09;5.35;;;4.65;;
19280;SDS011;9774;52.034;5.342;2023-06-26T01:13:37;4.85;;;4.35;;
19280;SDS011;9774;52.034;5.342;2023-06-26T01:16:05;4.22;;;3.83;;
19280;SDS011;9774;52.034;5.342;2023-06-26T01:18:34;5.03;;;4.20;;
19280;SDS011;9774;52.034;5.342;2023-06-26T01:21:09;6.13;;;4.57;;
19280;SDS011;9774;52.034;5.342;2023-06-26T01:23:38;4.15;;;3.75;;
19280;SDS011;9774;52.034;5.342;2023-06-26T01:26:18;4.00;;;3.42;;
19280;SDS011;9774;52.034;5.342;2023-06-26T01:28:47;3.88;;;3.45;;
19280;SDS011;9774;52.034;5.342;2023-06-26T01:31:17;4.50;;;3.70;;
19280;SDS011;9774;52.034;5.342;2023-06-26T01:33:45;5.28;;;3.80;;
19280;SDS011;9774;52.034;5.342;2023-06-26T01:36:13;3.95;;;3.25;;
19280;SDS011;9774;52.034;5.342;2023-06-26T01:38:40;4.50;;;3.42;;
19280;SDS011;9774;52.034;5.342;2023-06-26T01:41:08;4.20;;;3.10;;
19280;SDS011;9774;52.034;5.342;2023-06-26T01:43:38;4.43;;;3.38;;
19280;SDS011;9774;52.034;5.342;2023-06-26T01:46:11;3.75;;;3.38;;
19280;SDS011;9774;52.034;5.342;2023-06-26T01:48:45;4.05;;;3.28;;
19280;SDS011;9774;52.034;5.342;2023-06-26T01:51:18;5.10;;;2.88;;
19280;SDS011;9774;52.034;5.342;2023-06-26T01:53:48;4.15;;;3.50;;
19280;SDS011;9774;52.034;5.342;2023-06-26T01:56:21;7.35;;;3.33;;
19280;SDS011;9774;52.034;5.342;2023-06-26T01:58:52;4.32;;;3.35;;
19280;SDS011;9774;52.034;5.342;2023-06-26T02:01:21;7.18;;;3.17;;
19280;SDS011;9774;52.034;5.342;2023-06-26T02:03:48;3.35;;;2.78;;
19280;SDS011;9774;52.034;5.342;2023-06-26T02:06:16;3.33;;;2.72;;
19280;SDS011;9774;52.034;5.342;2023-06-26T02:08:44;5.72;;;2.97;;
19280;SDS011;9774;52.034;5.342;2023-06-26T02:11:11;4.32;;;3.10;;
19280;SDS011;9774;52.034;5.342;2023-06-26T02:13:38;7.15;;;2.63;;
19280;SDS011;9774;52.034;5.342;2023-06-26T02:16:07;3.60;;;2.92;;
19280;SDS011;9774;52.034;5.342;2023-06-26T02:18:34;4.00;;;2.88;;
19280;SDS011;9774;52.034;5.342;2023-06-26T02:21:02;4.47;;;2.80;;
19280;SDS011;9774;52.034;5.342;2023-06-26T02:23:30;3.95;;;2.40;;
19280;SDS011;9774;52.034;5.342;2023-06-26T02:25:58;5.00;;;3.03;;
19280;SDS011;9774;52.034;5.342;2023-06-26T02:28:26;4.53;;;2.50;;
19280;SDS011;9774;52.034;5.342;2023-06-26T02:30:53;5.15;;;2.38;;
19280;SDS011;9774;52.034;5.342;2023-06-26T02:33:22;4.82;;;2.42;;
19280;SDS011;9774;52.034;5.342;2023-06-26T02:35:49;4.22;;;2.55;;
19280;SDS011;9774;52.034;5.342;2023-06-26T02:38:17;4.32;;;2.70;;
19280;SDS011;9774;52.034;5.342;2023-06-26T02:40:44;3.58;;;2.50;;
19280;SDS011;9774;52.034;5.342;2023-06-26T02:43:12;3.05;;;2.28;;
19280;SDS011;9774;52.034;5.342;2023-06-26T02:45:42;4.65;;;2.53;;
19280;SDS011;9774;52.034;5.342;2023-06-26T02:48:09;4.45;;;2.60;;
19280;SDS011;9774;52.034;5.342;2023-06-26T02:50:38;5.00;;;2.28;;
19280;SDS011;9774;52.034;5.342;2023-06-26T02:53:05;6.65;;;2.65;;
19280;SDS011;9774;52.034;5.342;2023-06-26T02:55:33;6.20;;;2.10;;
19280;SDS011;9774;52.034;5.342;2023-06-26T02:58:01;4.25;;;2.33;;
19280;SDS011;9774;52.034;5.342;2023-06-26T03:00:28;5.35;;;2.53;;
19280;SDS011;9774;52.034;5.342;2023-06-26T03:02:55;5.22;;;2.05;;
19280;SDS011;9774;52.034;5.342;2023-06-26T03:05:23;3.53;;;2.53;;
19280;SDS011;9774;52.034;5.342;2023-06-26T03:07:51;7.05;;;2.30;;
19280;SDS011;9774;52.034;5.342;2023-06-26T03:10:19;3.20;;;2.38;;
19280;SDS011;9774;52.034;5.342;2023-06-26T03:12:46;3.25;;;2.08;;
19280;SDS011;9774;52.034;5.342;2023-06-26T03:15:14;4.30;;;2.58;;
19280;SDS011;9774;52.034;5.342;2023-06-26T03:17:41;4.82;;;2.60;;
19280;SDS011;9774;52.034;5.342;2023-06-26T03:20:08;6.65;;;2.72;;
19280;SDS011;9774;52.034;5.342;2023-06-26T03:22:36;4.45;;;2.78;;
19280;SDS011;9774;52.034;5.342;2023-06-26T03:25:05;6.05;;;2.35;;
19280;SDS011;9774;52.034;5.342;2023-06-26T03:27:32;8.27;;;3.15;;
19280;SDS011;9774;52.034;5.342;2023-06-26T03:30:00;5.65;;;2.92;;
19280;SDS011;9774;52.034;5.342;2023-06-26T03:32:27;5.68;;;2.85;;
19280;SDS011;9774;52.034;5.342;2023-06-26T03:34:54;4.32;;;2.60;;
19280;SDS011;9774;52.034;5.342;2023-06-26T03:37:22;6.57;;;2.70;;
19280;SDS011;9774;52.034;5.342;2023-06-26T03:39:50;4.05;;;2.47;;
19280;SDS011;9774;52.034;5.342;2023-06-26T03:42:19;5.25;;;2.58;;
19280;SDS011;9774;52.034;5.342;2023-06-26T03:44:46;8.00;;;2.80;;
19280;SDS011;9774;52.034;5.342;2023-06-26T03:47:13;5.35;;;3.15;;
19280;SDS011;9774;52.034;5.342;2023-06-26T03:49:40;6.10;;;2.90;;
19280;SDS011;9774;52.034;5.342;2023-06-26T03:52:08;4.38;;;2.22;;
19280;SDS011;9774;52.034;5.342;2023-06-26T03:54:35;5.38;;;2.67;;
19280;SDS011;9774;52.034;5.342;2023-06-26T03:57:02;4.47;;;2.72;;
19280;SDS011;9774;52.034;5.342;2023-06-26T03:59:31;5.07;;;2.85;;
19280;SDS011;9774;52.034;5.342;2023-06-26T04:01:59;8.13;;;3.03;;
19280;SDS011;9774;52.034;5.342;2023-06-26T04:04:26;6.32;;;2.83;;
19280;SDS011;9774;52.034;5.342;2023-06-26T04:06:53;4.70;;;2.80;;
19280;SDS011;9774;52.034;5.342;2023-06-26T04:09:21;4.70;;;2.63;;
19280;SDS011;9774;52.034;5.342;2023-06-26T04:11:48;5.78;;;2.85;;
19280;SDS011;9774;52.034;5.342;2023-06-26T04:14:15;5.82;;;2.78;;
19280;SDS011;9774;52.034;5.342;2023-06-26T04:16:44;8.40;;;2.88;;
19280;SDS011;9774;52.034;5.342;2023-06-26T04:19:12;6.68;;;2.90;;
19280;SDS011;9774;52.034;5.342;2023-06-26T04:21:39;4.50;;;2.53;;
19280;SDS011;9774;52.034;5.342;2023-06-26T04:24:07;7.72;;;2.92;;
19280;SDS011;9774;52.034;5.342;2023-06-26T04:26:34;9.05;;;2.50;;
19280;SDS011;9774;52.034;5.342;2023-06-26T04:29:02;8.25;;;2.83;;
19280;SDS011;9774;52.034;5.342;2023-06-26T04:31:29;8.38;;;2.60;;
19280;SDS011;9774;52.034;5.342;2023-06-26T04:33:58;4.78;;;2.40;;
19280;SDS011;9774;52.034;5.342;2023-06-26T04:36:25;3.63;;;2.40;;
19280;SDS011;9774;52.034;5.342;2023-06-26T04:38:53;4.93;;;2.95;;
19280;SDS011;9774;52.034;5.342;2023-06-26T04:41:21;4.13;;;2.40;;
19280;SDS011;9774;52.034;5.342;2023-06-26T04:43:48;4.97;;;2.45;;
19280;SDS011;9774;52.034;5.342;2023-06-26T04:46:16;8.52;;;2.90;;
19280;SDS011;9774;52.034;5.342;2023-06-26T04:48:44;6.30;;;2.40;;
19280;SDS011;9774;52.034;5.342;2023-06-26T04:51:13;4.30;;;2.00;;
19280;SDS011;9774;52.034;5.342;2023-06-26T04:53:41;5.45;;;2.83;;
19280;SDS011;9774;52.034;5.342;2023-06-26T04:56:08;3.38;;;2.10;;
19280;SDS011;9774;52.034;5.342;2023-06-26T04:58:36;4.88;;;2.90;;
19280;SDS011;9774;52.034;5.342;2023-06-26T05:01:04;6.10;;;2.40;;
19280;SDS011;9774;52.034;5.342;2023-06-26T05:03:32;5.63;;;2.28;;
19280;SDS011;9774;52.034;5.342;2023-06-26T05:05:59;5.07;;;2.13;;
19280;SDS011;9774;52.034;5.342;2023-06-26T05:08:28;4.07;;;2.55;;
19280;SDS011;9774;52.034;5.342;2023-06-26T05:10:55;4.20;;;2.40;;
19280;SDS011;9774;52.034;5.342;2023-06-26T05:13:24;3.47;;;2.38;;
19280;SDS011;9774;52.034;5.342;2023-06-26T05:15:53;5.38;;;2.45;;
19280;SDS011;9774;52.034;5.342;2023-06-26T05:18:20;5.30;;;2.15;;
19280;SDS011;9774;52.034;5.342;2023-06-26T05:20:47;2.97;;;2.40;;
19280;SDS011;9774;52.034;5.342;2023-06-26T05:23:15;4.15;;;1.95;;
19280;SDS011;9774;52.034;5.342;2023-06-26T05:25:45;4.18;;;2.13;;
19280;SDS011;9774;52.034;5.342;2023-06-26T05:28:12;3.10;;;2.20;;
19280;SDS011;9774;52.034;5.342;2023-06-26T05:30:40;3.60;;;2.22;;
19280;SDS011;9774;52.034;5.342;2023-06-26T05:33:08;4.05;;;2.55;;
19280;SDS011;9774;52.034;5.342;2023-06-26T05:35:38;2.45;;;1.75;;
19280;SDS011;9774;52.034;5.342;2023-06-26T05:38:07;3.92;;;2.30;;
19280;SDS011;9774;52.034;5.342;2023-06-26T05:40:35;4.82;;;1.92;;
19280;SDS011;9774;52.034;5.342;2023-06-26T05:43:04;3.20;;;1.83;;
19280;SDS011;9774;52.034;5.342;2023-06-26T05:45:32;1.95;;;1.58;;
19280;SDS011;9774;52.034;5.342;2023-06-26T05:47:59;2.97;;;1.75;;
19280;SDS011;9774;52.034;5.342;2023-06-26T05:50:27;3.40;;;1.70;;
19280;SDS011;9774;52.034;5.342;2023-06-26T05:52:55;2.35;;;1.75;;
19280;SDS011;9774;52.034;5.342;2023-06-26T05:55:23;6.15;;;1.63;;
19280;SDS011;9774;52.034;5.342;2023-06-26T05:57:51;2.15;;;1.65;;
19280;SDS011;9774;52.034;5.342;2023-06-26T06:00:21;1.80;;;1.45;;
19280;SDS011;9774;52.034;5.342;2023-06-26T06:02:50;1.85;;;1.33;;
19280;SDS011;9774;52.034;5.342;2023-06-26T06:05:19;2.85;;;1.70;;
19280;SDS011;9774;52.034;5.342;2023-06-26T06:07:46;3.17;;;2.03;;
19280;SDS011;9774;52.034;5.342;2023-06-26T06:10:14;3.78;;;1.73;;
19280;SDS011;9774;52.034;5.342;2023-06-26T06:12:41;2.35;;;1.45;;
19280;SDS011;9774;52.034;5.342;2023-06-26T06:15:08;2.67;;;1.80;;
19280;SDS011;9774;52.034;5.342;2023-06-26T06:17:37;3.30;;;1.70;;
19280;SDS011;9774;52.034;5.342;2023-06-26T06:20:05;4.13;;;1.90;;
19280;SDS011;9774;52.034;5.342;2023-06-26T06:22:32;3.83;;;1.58;;
19280;SDS011;9774;52.034;5.342;2023-06-26T06:24:59;2.22;;;1.70;;
19280;SDS011;9774;52.034;5.342;2023-06-26T06:27:27;5.20;;;1.88;;
19280;SDS011;9774;52.034;5.342;2023-06-26T06:29:55;2.42;;;1.50;;
19280;SDS011;9774;52.034;5.342;2023-06-26T06:32:22;3.85;;;1.70;;
19280;SDS011;9774;52.034;5.342;2023-06-26T06:34:51;3.15;;;1.90;;
19280;SDS011;9774;52.034;5.342;2023-06-26T06:37:18;3.25;;;1.35;;
19280;SDS011;9774;52.034;5.342;2023-06-26T06:39:46;2.50;;;2.03;;
19280;SDS011;9774;52.034;5.342;2023-06-26T06:42:13;4.95;;;1.60;;
19280;SDS011;9774;52.034;5.342;2023-06-26T06:44:41;5.28;;;1.77;;
19280;SDS011;9774;52.034;5.342;2023-06-26T06:47:08;3.42;;;1.60;;
19280;SDS011;9774;52.034;5.342;2023-06-26T06:49:36;3.63;;;1.92;;
19280;SDS011;9774;52.034;5.342;2023-06-26T06:52:05;2.95;;;1.70;;
19280;SDS011;9774;52.034;5.342;2023-06-26T06:54:33;1.77;;;1.30;;
19280;SDS011;9774;52.034;5.342;2023-06-26T06:57:19;2.50;;;1.42;;
19280;SDS011;9774;52.034;5.342;2023-06-26T06:59:46;3.42;;;1.63;;
19280;SDS011;9774;52.034;5.342;2023-06-26T07:02:14;3.38;;;1.27;;
19280;SDS011;9774;52.034;5.342;2023-06-26T07:04:42;3.25;;;1.85;;
19280;SDS011;9774;52.034;5.342;2023-06-26T07:07:11;2.47;;;1.25;;
19280;SDS011;9774;52.034;5.342;2023-06-26T07:09:39;1.95;;;1.50;;
19280;SDS011;9774;52.034;5.342;2023-06-26T07:12:08;2.08;;;1.58;;
19280;SDS011;9774;52.034;5.342;2023-06-26T07:14:35;3.38;;;1.80;;
19280;SDS011;9774;52.034;5.342;2023-06-26T07:17:03;5.05;;;1.90;;
19280;SDS011;9774;52.034;5.342;2023-06-26T07:19:30;2.25;;;1.50;;
19280;SDS011;9774;52.034;5.342;2023-06-26T07:21:57;2.35;;;1.20;;
19280;SDS011;9774;52.034;5.342;2023-06-26T07:24:26;2.00;;;1.30;;
19280;SDS011;9774;52.034;5.342;2023-06-26T07:26:53;2.85;;;1.30;;
19280;SDS011;9774;52.034;5.342;2023-06-26T07:29:21;2.10;;;1.60;;
19280;SDS011;9774;52.034;5.342;2023-06-26T07:31:48;2.10;;;1.63;;
19280;SDS011;9774;52.034;5.342;2023-06-26T07:34:15;3.33;;;1.80;;
19280;SDS011;9774;52.034;5.342;2023-06-26T07:36:43;2.78;;;1.20;;
19280;SDS011;9774;52.034;5.342;2023-06-26T07:39:10;3.25;;;1.55;;
19280;SDS011;9774;52.034;5.342;2023-06-26T07:41:39;2.58;;;1.40;;
19280;SDS011;9774;52.034;5.342;2023-06-26T07:44:07;4.03;;;1.33;;
19280;SDS011;9774;52.034;5.342;2023-06-26T07:46:34;5.20;;;2.10;;
19280;SDS011;9774;52.034;5.342;2023-06-26T07:49:01;3.92;;;1.63;;
19280;SDS011;9774;52.034;5.342;2023-06-26T07:51:29;5.72;;;1.60;;
19280;SDS011;9774;52.034;5.342;2023-06-26T07:53:56;3.13;;;1.42;;
19280;SDS011;9774;52.034;5.342;2023-06-26T07:56:23;3.00;;;1.40;;
19280;SDS011;9774;52.034;5.342;2023-06-26T07:58:52;2.00;;;1.25;;
19280;SDS011;9774;52.034;5.342;2023-06-26T08:01:19;2.95;;;1.30;;
19280;SDS011;9774;52.034;5.342;2023-06-26T08:03:47;1.67;;;1.35;;
19280;SDS011;9774;52.034;5.342;2023-06-26T08:06:14;4.28;;;1.75;;
19280;SDS011;9774;52.034;5.342;2023-06-26T08:08:41;4.00;;;1.70;;
19280;SDS011;9774;52.034;5.342;2023-06-26T08:11:09;5.90;;;1.85;;
19280;SDS011;9774;52.034;5.342;2023-06-26T08:13:36;4.95;;;1.83;;
19280;SDS011;9774;52.034;5.342;2023-06-26T08:16:05;2.78;;;1.45;;
19280;SDS011;9774;52.034;5.342;2023-06-26T08:18:33;3.38;;;1.13;;
19280;SDS011;9774;52.034;5.342;2023-06-26T08:21:00;3.72;;;1.52;;
19280;SDS011;9774;52.034;5.342;2023-06-26T08:23:27;2.95;;;1.08;;
19280;SDS011;9774;52.034;5.342;2023-06-26T08:25:55;1.77;;;1.02;;
19280;SDS011;9774;52.034;5.342;2023-06-26T08:28:23;3.80;;;1.00;;
19280;SDS011;9774;52.034;5.342;2023-06-26T08:30:51;3.97;;;1.17;;
19280;SDS011;9774;52.034;5.342;2023-06-26T08:33:21;2.97;;;1.08;;
19280;SDS011;9774;52.034;5.342;2023-06-26T08:35:48;1.85;;;0.80;;
19280;SDS011;9774;52.034;5.342;2023-06-26T08:38:16;3.03;;;1.08;;
19280;SDS011;9774;52.034;5.342;2023-06-26T08:40:46;1.58;;;0.80;;
19280;SDS011;9774;52.034;5.342;2023-06-26T08:43:14;1.45;;;1.10;;
19280;SDS011;9774;52.034;5.342;2023-06-26T08:45:41;1.98;;;0.98;;
19280;SDS011;9774;52.034;5.342;2023-06-26T08:48:10;1.52;;;0.90;;
19280;SDS011;9774;52.034;5.342;2023-06-26T08:50:39;2.53;;;0.75;;
19280;SDS011;9774;52.034;5.342;2023-06-26T08:53:08;1.92;;;0.75;;
19280;SDS011;9774;52.034;5.342;2023-06-26T08:55:41;7.30;;;1.15;;
19280;SDS011;9774;52.034;5.342;2023-06-26T08:58:09;0.93;;;0.75;;
19280;SDS011;9774;52.034;5.342;2023-06-26T09:00:37;1.65;;;0.88;;
19280;SDS011;9774;52.034;5.342;2023-06-26T09:03:05;1.95;;;0.73;;
19280;SDS011;9774;52.034;5.342;2023-06-26T09:05:34;3.40;;;1.00;;
19280;SDS011;9774;52.034;5.342;2023-06-26T09:08:03;2.15;;;0.93;;
19280;SDS011;9774;52.034;5.342;2023-06-26T09:10:31;5.53;;;0.90;;
19280;SDS011;9774;52.034;5.342;2023-06-26T09:12:58;1.73;;;0.82;;
19280;SDS011;9774;52.034;5.342;2023-06-26T09:15:27;1.35;;;0.90;;
19280;SDS011;9774;52.034;5.342;2023-06-26T09:18:04;2.97;;;0.88;;
19280;SDS011;9774;52.034;5.342;2023-06-26T09:20:31;3.10;;;0.85;;
19280;SDS011;9774;52.034;5.342;2023-06-26T09:22:59;5.10;;;1.30;;
19280;SDS011;9774;52.034;5.342;2023-06-26T09:25:28;2.20;;;0.70;;
19280;SDS011;9774;52.034;5.342;2023-06-26T09:27:56;5.03;;;1.08;;
19280;SDS011;9774;52.034;5.342;2023-06-26T09:30:23;1.98;;;0.75;;
19280;SDS011;9774;52.034;5.342;2023-06-26T09:32:52;2.78;;;0.90;;
19280;SDS011;9774;52.034;5.342;2023-06-26T09:35:20;2.35;;;1.20;;
19280;SDS011;9774;52.034;5.342;2023-06-26T09:37:47;3.75;;;1.00;;
19280;SDS011;9774;52.034;5.342;2023-06-26T09:40:15;2.13;;;0.80;;
19280;SDS011;9774;52.034;5.342;2023-06-26T09:42:43;3.42;;;1.00;;
19280;SDS011;9774;52.034;5.342;2023-06-26T09:45:17;2.10;;;0.82;;
19280;SDS011;9774;52.034;5.342;2023-06-26T09:47:46;4.15;;;1.10;;
19280;SDS011;9774;52.034;5.342;2023-06-26T09:50:23;1.77;;;0.85;;
19280;SDS011;9774;52.034;5.342;2023-06-26T09:52:52;6.35;;;1.30;;
19280;SDS011;9774;52.034;5.342;2023-06-26T09:55:19;2.22;;;0.90;;
19280;SDS011;9774;52.034;5.342;2023-06-26T09:57:49;3.35;;;1.00;;
19280;SDS011;9774;52.034;5.342;2023-06-26T10:00:18;4.72;;;0.90;;
19280;SDS011;9774;52.034;5.342;2023-06-26T10:02:46;1.30;;;0.60;;
19280;SDS011;9774;52.034;5.342;2023-06-26T10:05:14;1.58;;;0.88;;
19280;SDS011;9774;52.034;5.342;2023-06-26T10:07:41;1.02;;;0.82;;
19280;SDS011;9774;52.034;5.342;2023-06-26T10:10:08;4.88;;;0.75;;
19280;SDS011;9774;52.034;5.342;2023-06-26T10:12:37;1.70;;;0.77;;
19280;SDS011;9774;52.034;5.342;2023-06-26T10:15:06;1.85;;;1.05;;
19280;SDS011;9774;52.034;5.342;2023-06-26T10:17:37;1.83;;;0.93;;
19280;SDS011;9774;52.034;5.342;2023-06-26T10:20:07;2.15;;;0.90;;
19280;SDS011;9774;52.034;5.342;2023-06-26T10:22:37;2.72;;;0.80;;
19280;SDS011;9774;52.034;5.342;2023-06-26T10:25:08;1.27;;;0.80;;
19280;SDS011;9774;52.034;5.342;2023-06-26T10:27:38;2.35;;;0.70;;
19280;SDS011;9774;52.034;5.342;2023-06-26T10:30:11;1.58;;;0.77;;
19280;SDS011;9774;52.034;5.342;2023-06-26T10:32:42;1.00;;;0.60;;
19280;SDS011;9774;52.034;5.342;2023-06-26T10:35:10;2.75;;;0.82;;
19280;SDS011;9774;52.034;5.342;2023-06-26T10:37:41;1.58;;;0.73;;
19280;SDS011;9774;52.034;5.342;2023-06-26T10:40:10;3.72;;;0.60;;
19280;SDS011;9774;52.034;5.342;2023-06-26T10:42:38;1.58;;;0.70;;
19280;SDS011;9774;52.034;5.342;2023-06-26T10:45:11;4.70;;;0.95;;
19280;SDS011;9774;52.034;5.342;2023-06-26T10:47:41;3.42;;;0.80;;
19280;SDS011;9774;52.034;5.342;2023-06-26T10:50:21;0.98;;;0.52;;
19280;SDS011;9774;52.034;5.342;2023-06-26T10:55:41;2.25;;;0.70;;
19280;SDS011;9774;52.034;5.342;2023-06-26T10:58:28;1.77;;;0.80;;
19280;SDS011;9774;52.034;5.342;2023-06-26T11:01:18;0.93;;;0.40;;
19280;SDS011;9774;52.034;5.342;2023-06-26T11:03:47;3.67;;;1.25;;
19280;SDS011;9774;52.034;5.342;2023-06-26T11:06:27;1.35;;;1.10;;
19280;SDS011;9774;52.034;5.342;2023-06-26T11:08:59;1.20;;;0.65;;
19280;SDS011;9774;52.034;5.342;2023-06-26T11:14:24;1.08;;;0.50;;
19280;SDS011;9774;52.034;5.342;2023-06-26T11:16:53;1.77;;;0.68;;
19280;SDS011;9774;52.034;5.342;2023-06-26T11:19:23;2.78;;;0.85;;
19280;SDS011;9774;52.034;5.342;2023-06-26T11:21:57;2.13;;;0.75;;
19280;SDS011;9774;52.034;5.342;2023-06-26T11:24:26;3.30;;;0.85;;
19280;SDS011;9774;52.034;5.342;2023-06-26T11:26:54;2.35;;;0.60;;
19280;SDS011;9774;52.034;5.342;2023-06-26T11:29:28;2.53;;;1.00;;
19280;SDS011;9774;52.034;5.342;2023-06-26T11:32:01;3.90;;;1.13;;
19280;SDS011;9774;52.034;5.342;2023-06-26T11:34:31;1.77;;;0.80;;
19280;SDS011;9774;52.034;5.342;2023-06-26T11:36:59;1.67;;;0.93;;
19280;SDS011;9774;52.034;5.342;2023-06-26T11:39:27;1.65;;;0.75;;
19280;SDS011;9774;52.034;5.342;2023-06-26T11:41:55;1.15;;;0.80;;
19280;SDS011;9774;52.034;5.342;2023-06-26T11:44:22;0.95;;;0.65;;
19280;SDS011;9774;52.034;5.342;2023-06-26T11:46:53;1.40;;;0.77;;
19280;SDS011;9774;52.034;5.342;2023-06-26T11:49:22;2.60;;;0.80;;
19280;SDS011;9774;52.034;5.342;2023-06-26T11:51:51;1.00;;;0.50;;
19280;SDS011;9774;52.034;5.342;2023-06-26T11:54:24;2.85;;;0.90;;
19280;SDS011;9774;52.034;5.342;2023-06-26T11:56:53;1.23;;;0.90;;
19280;SDS011;9774;52.034;5.342;2023-06-26T11:59:26;2.15;;;0.60;;
19280;SDS011;9774;52.034;5.342;2023-06-26T12:02:00;1.65;;;0.65;;
19280;SDS011;9774;52.034;5.342;2023-06-26T12:04:34;2.67;;;0.50;;
19280;SDS011;9774;52.034;5.342;2023-06-26T12:07:04;0.90;;;0.40;;
19280;SDS011;9774;52.034;5.342;2023-06-26T12:09:34;1.33;;;0.50;;
19280;SDS011;9774;52.034;5.342;2023-06-26T12:12:05;0.82;;;0.52;;
19280;SDS011;9774;52.034;5.342;2023-06-26T12:14:35;1.17;;;0.57;;
19280;SDS011;9774;52.034;5.342;2023-06-26T12:17:05;1.00;;;0.63;;
19280;SDS011;9774;52.034;5.342;2023-06-26T12:19:37;1.23;;;0.70;;
19280;SDS011;9774;52.034;5.342;2023-06-26T12:22:06;2.45;;;0.50;;
19280;SDS011;9774;52.034;5.342;2023-06-26T12:24:36;2.55;;;0.68;;
19280;SDS011;9774;52.034;5.342;2023-06-26T12:27:07;2.15;;;0.60;;
19280;SDS011;9774;52.034;5.342;2023-06-26T12:29:35;1.20;;;0.30;;
19280;SDS011;9774;52.034;5.342;2023-06-26T12:32:03;1.73;;;0.57;;
19280;SDS011;9774;52.034;5.342;2023-06-26T12:34:35;1.02;;;0.40;;
19280;SDS011;9774;52.034;5.342;2023-06-26T12:37:05;0.73;;;0.40;;
19280;SDS011;9774;52.034;5.342;2023-06-26T12:39:46;1.08;;;0.40;;
19280;SDS011;9774;52.034;5.342;2023-06-26T12:42:16;0.40;;;0.30;;
19280;SDS011;9774;52.034;5.342;2023-06-26T12:44:44;0.90;;;0.70;;
19280;SDS011;9774;52.034;5.342;2023-06-26T12:47:12;2.75;;;0.60;;
19280;SDS011;9774;52.034;5.342;2023-06-26T12:49:43;3.33;;;0.60;;
19280;SDS011;9774;52.034;5.342;2023-06-26T12:52:12;0.85;;;0.47;;
19280;SDS011;9774;52.034;5.342;2023-06-26T12:54:40;0.85;;;0.35;;
19280;SDS011;9774;52.034;5.342;2023-06-26T12:57:08;2.58;;;0.60;;
19280;SDS011;9774;52.034;5.342;2023-06-26T12:59:39;0.63;;;0.45;;
19280;SDS011;9774;52.034;5.342;2023-06-26T13:02:06;1.55;;;0.80;;
19280;SDS011;9774;52.034;5.342;2023-06-26T13:04:36;1.75;;;0.43;;
19280;SDS011;9774;52.034;5.342;2023-06-26T13:07:06;1.35;;;0.60;;
19280;SDS011;9774;52.034;5.342;2023-06-26T13:09:34;3.40;;;0.77;;
19280;SDS011;9774;52.034;5.342;2023-06-26T13:12:02;1.27;;;0.50;;
19280;SDS011;9774;52.034;5.342;2023-06-26T13:14:30;1.60;;;0.50;;
19280;SDS011;9774;52.034;5.342;2023-06-26T13:16:57;1.42;;;0.52;;
19280;SDS011;9774;52.034;5.342;2023-06-26T13:19:26;0.90;;;0.52;;
19280;SDS011;9774;52.034;5.342;2023-06-26T13:21:53;0.80;;;0.60;;
19280;SDS011;9774;52.034;5.342;2023-06-26T13:24:22;2.13;;;0.75;;
19280;SDS011;9774;52.034;5.342;2023-06-26T13:26:49;2.15;;;0.60;;
19280;SDS011;9774;52.034;5.342;2023-06-26T13:29:17;4.15;;;0.82;;
19280;SDS011;9774;52.034;5.342;2023-06-26T13:31:44;1.17;;;0.60;;
19280;SDS011;9774;52.034;5.342;2023-06-26T13:34:20;0.80;;;0.50;;
19280;SDS011;9774;52.034;5.342;2023-06-26T13:36:48;0.90;;;0.50;;
19280;SDS011;9774;52.034;5.342;2023-06-26T13:39:15;0.85;;;0.40;;
19280;SDS011;9774;52.034;5.342;2023-06-26T13:41:44;1.75;;;0.70;;
19280;SDS011;9774;52.034;5.342;2023-06-26T13:44:12;1.25;;;0.70;;
19280;SDS011;9774;52.034;5.342;2023-06-26T13:46:39;1.13;;;0.43;;
19280;SDS011;9774;52.034;5.342;2023-06-26T13:49:06;2.53;;;0.90;;
19280;SDS011;9774;52.034;5.342;2023-06-26T13:51:34;0.77;;;0.47;;
19280;SDS011;9774;52.034;5.342;2023-06-26T13:54:01;2.33;;;0.75;;
19280;SDS011;9774;52.034;5.342;2023-06-26T13:56:28;1.42;;;0.73;;
19280;SDS011;9774;52.034;5.342;2023-06-26T13:58:57;1.27;;;0.52;;
19280;SDS011;9774;52.034;5.342;2023-06-26T14:01:24;1.65;;;0.50;;
19280;SDS011;9774;52.034;5.342;2023-06-26T14:03:52;1.65;;;0.50;;
19280;SDS011;9774;52.034;5.342;2023-06-26T14:06:19;1.23;;;0.65;;
19280;SDS011;9774;52.034;5.342;2023-06-26T14:08:46;1.05;;;0.50;;
19280;SDS011;9774;52.034;5.342;2023-06-26T14:11:14;5.68;;;0.60;;
19280;SDS011;9774;52.034;5.342;2023-06-26T14:13:41;1.73;;;0.68;;
19280;SDS011;9774;52.034;5.342;2023-06-26T14:16:10;1.67;;;0.68;;
19280;SDS011;9774;52.034;5.342;2023-06-26T14:18:37;3.35;;;0.47;;
19280;SDS011;9774;52.034;5.342;2023-06-26T14:21:05;1.17;;;0.50;;
19280;SDS011;9774;52.034;5.342;2023-06-26T14:23:32;1.33;;;0.60;;
19280;SDS011;9774;52.034;5.342;2023-06-26T14:25:59;1.70;;;0.82;;
19280;SDS011;9774;52.034;5.342;2023-06-26T14:28:27;3.17;;;0.43;;
19280;SDS011;9774;52.034;5.342;2023-06-26T14:30:54;0.77;;;0.40;;
19280;SDS011;9774;52.034;5.342;2023-06-26T14:33:23;0.85;;;0.60;;
19280;SDS011;9774;52.034;5.342;2023-06-26T14:35:50;4.15;;;0.73;;
19280;SDS011;9774;52.034;5.342;2023-06-26T14:38:18;1.02;;;0.47;;
19280;SDS011;9774;52.034;5.342;2023-06-26T14:40:45;1.38;;;0.47;;
19280;SDS011;9774;52.034;5.342;2023-06-26T14:43:12;2.53;;;0.63;;
19280;SDS011;9774;52.034;5.342;2023-06-26T14:45:40;1.50;;;0.63;;
19280;SDS011;9774;52.034;5.342;2023-06-26T14:48:08;5.47;;;0.95;;
19280;SDS011;9774;52.034;5.342;2023-06-26T14:50:37;1.52;;;0.60;;
19280;SDS011;9774;52.034;5.342;2023-06-26T14:53:04;1.73;;;0.63;;
19280;SDS011;9774;52.034;5.342;2023-06-26T14:55:31;1.98;;;0.50;;
19280;SDS011;9774;52.034;5.342;2023-06-26T14:57:58;1.88;;;0.70;;
19280;SDS011;9774;52.034;5.342;2023-06-26T15:00:26;1.35;;;0.50;;
19280;SDS011;9774;52.034;5.342;2023-06-26T15:02:53;2.63;;;0.75;;
19280;SDS011;9774;52.034;5.342;2023-06-26T15:05:26;1.15;;;0.65;;
19280;SDS011;9774;52.034;5.342;2023-06-26T15:07:54;0.70;;;0.40;;
19280;SDS011;9774;52.034;5.342;2023-06-26T15:10:22;1.38;;;0.52;;
19280;SDS011;9774;52.034;5.342;2023-06-26T15:12:49;0.75;;;0.60;;
19280;SDS011;9774;52.034;5.342;2023-06-26T15:15:18;4.53;;;0.77;;